sensor_id;sensor_type;location;lat;lon;timestamp;temperature;humidity
18805;DHT22;9530;48.930;9.526;2022-11-14T00:01:38;4.20;99.90
18805;DHT22;9530;48.930;9.526;2022-11-14T00:04:05;4.20;99.90
18805;DHT22;9530;48.930;9.526;2022-11-14T00:06:33;4.30;99.90
18805;DHT22;9530;48.930;9.526;2022-11-14T00:08:59;4.20;99.90
18805;DHT22;9530;48.930;9.526;2022-11-14T00:11:26;4.10;99.90
18805;DHT22;9530;48.930;9.526;2022-11-14T00:13:53;4.00;99.90
18805;DHT22;9530;48.930;9.526;2022-11-14T00:16:20;4.10;99.90
18805;DHT22;9530;48.930;9.526;2022-11-14T00:18:46;4.30;99.90
18805;DHT22;9530;48.930;9.526;2022-11-14T00:21:13;4.30;99.90
18805;DHT22;9530;48.930;9.526;2022-11-14T00:23:41;4.50;99.90
18805;DHT22;9530;48.930;9.526;2022-11-14T00:26:08;4.70;99.90
18805;DHT22;9530;48.930;9.526;2022-11-14T00:28:34;4.70;99.90
18805;DHT22;9530;48.930;9.526;2022-11-14T00:31:01;4.80;99.90
18805;DHT22;9530;48.930;9.526;2022-11-14T00:33:28;4.80;99.90
18805;DHT22;9530;48.930;9.526;2022-11-14T00:35:55;4.90;99.90
18805;DHT22;9530;48.930;9.526;2022-11-14T00:38:22;5.00;99.90
18805;DHT22;9530;48.930;9.526;2022-11-14T00:40:50;5.10;99.90
18805;DHT22;9530;48.930;9.526;2022-11-14T00:43:17;5.20;99.90
18805;DHT22;9530;48.930;9.526;2022-11-14T00:45:45;5.30;99.90
18805;DHT22;9530;48.930;9.526;2022-11-14T00:48:12;5.30;99.90
18805;DHT22;9530;48.930;9.526;2022-11-14T00:50:38;5.40;99.90
18805;DHT22;9530;48.930;9.526;2022-11-14T00:53:05;5.40;99.90
18805;DHT22;9530;48.930;9.526;2022-11-14T00:55:32;5.40;99.90
18805;DHT22;9530;48.930;9.526;2022-11-14T00:58:00;5.30;99.90
18805;DHT22;9530;48.930;9.526;2022-11-14T01:00:27;5.40;99.90
18805;DHT22;9530;48.930;9.526;2022-11-14T01:02:54;5.40;99.90
18805;DHT22;9530;48.930;9.526;2022-11-14T01:05:22;5.50;99.90
18805;DHT22;9530;48.930;9.526;2022-11-14T01:07:49;5.50;99.90
18805;DHT22;9530;48.930;9.526;2022-11-14T01:10:17;5.60;99.90
18805;DHT22;9530;48.930;9.526;2022-11-14T01:12:44;5.60;99.90
18805;DHT22;9530;48.930;9.526;2022-11-14T01:15:12;5.60;99.90
18805;DHT22;9530;48.930;9.526;2022-11-14T01:17:39;5.60;99.90
18805;DHT22;9530;48.930;9.526;2022-11-14T01:20:06;5.50;99.90
18805;DHT22;9530;48.930;9.526;2022-11-14T01:22:32;5.50;99.90
18805;DHT22;9530;48.930;9.526;2022-11-14T01:24:59;5.40;99.90
18805;DHT22;9530;48.930;9.526;2022-11-14T01:27:29;5.40;99.90
18805;DHT22;9530;48.930;9.526;2022-11-14T01:29:56;5.40;99.90
18805;DHT22;9530;48.930;9.526;2022-11-14T01:32:25;5.40;99.90
18805;DHT22;9530;48.930;9.526;2022-11-14T01:34:51;5.40;99.90
18805;DHT22;9530;48.930;9.526;2022-11-14T01:37:18;5.40;99.90
18805;DHT22;9530;48.930;9.526;2022-11-14T01:39:45;5.30;99.90
18805;DHT22;9530;48.930;9.526;2022-11-14T01:42:11;5.20;99.90
18805;DHT22;9530;48.930;9.526;2022-11-14T01:44:44;5.20;99.90
18805;DHT22;9530;48.930;9.526;2022-11-14T01:47:12;5.20;99.90
18805;DHT22;9530;48.930;9.526;2022-11-14T01:49:45;5.20;99.90
18805;DHT22;9530;48.930;9.526;2022-11-14T01:52:15;5.20;99.90
18805;DHT22;9530;48.930;9.526;2022-11-14T01:54:45;5.10;99.90
18805;DHT22;9530;48.930;9.526;2022-11-14T01:57:16;5.00;99.90
18805;DHT22;9530;48.930;9.526;2022-11-14T01:59:49;4.90;99.90
18805;DHT22;9530;48.930;9.526;2022-11-14T02:02:18;4.80;99.90
18805;DHT22;9530;48.930;9.526;2022-11-14T02:04:49;4.70;99.90
18805;DHT22;9530;48.930;9.526;2022-11-14T02:07:17;4.60;99.90
18805;DHT22;9530;48.930;9.526;2022-11-14T02:09:46;4.50;99.90
18805;DHT22;9530;48.930;9.526;2022-11-14T02:12:16;4.40;99.90
18805;DHT22;9530;48.930;9.526;2022-11-14T02:14:45;4.30;99.90
18805;DHT22;9530;48.930;9.526;2022-11-14T02:17:13;4.30;99.90
18805;DHT22;9530;48.930;9.526;2022-11-14T02:19:43;4.10;99.90
18805;DHT22;9530;48.930;9.526;2022-11-14T02:22:12;4.10;99.90
18805;DHT22;9530;48.930;9.526;2022-11-14T02:24:38;3.90;99.90
18805;DHT22;9530;48.930;9.526;2022-11-14T02:27:05;3.80;99.90
18805;DHT22;9530;48.930;9.526;2022-11-14T02:29:33;3.70;99.90
18805;DHT22;9530;48.930;9.526;2022-11-14T02:32:00;3.60;99.90
18805;DHT22;9530;48.930;9.526;2022-11-14T02:34:27;3.50;99.90
18805;DHT22;9530;48.930;9.526;2022-11-14T02:36:54;3.40;99.90
18805;DHT22;9530;48.930;9.526;2022-11-14T02:39:22;3.40;99.90
18805;DHT22;9530;48.930;9.526;2022-11-14T02:41:50;3.30;99.90
18805;DHT22;9530;48.930;9.526;2022-11-14T02:44:17;3.10;99.90
18805;DHT22;9530;48.930;9.526;2022-11-14T02:46:44;3.10;99.90
18805;DHT22;9530;48.930;9.526;2022-11-14T02:49:11;3.10;99.90
18805;DHT22;9530;48.930;9.526;2022-11-14T02:51:37;3.10;99.90
18805;DHT22;9530;48.930;9.526;2022-11-14T02:54:05;3.10;99.90
18805;DHT22;9530;48.930;9.526;2022-11-14T02:56:33;3.10;99.90
18805;DHT22;9530;48.930;9.526;2022-11-14T02:59:00;3.00;99.90
18805;DHT22;9530;48.930;9.526;2022-11-14T03:01:27;3.00;99.90
18805;DHT22;9530;48.930;9.526;2022-11-14T03:03:53;3.00;99.90
18805;DHT22;9530;48.930;9.526;2022-11-14T03:06:20;3.00;99.90
18805;DHT22;9530;48.930;9.526;2022-11-14T03:08:47;2.80;99.90
18805;DHT22;9530;48.930;9.526;2022-11-14T03:11:13;2.80;99.90
18805;DHT22;9530;48.930;9.526;2022-11-14T03:13:41;2.80;99.90
18805;DHT22;9530;48.930;9.526;2022-11-14T03:16:10;2.80;99.90
18805;DHT22;9530;48.930;9.526;2022-11-14T03:18:37;2.80;99.90
18805;DHT22;9530;48.930;9.526;2022-11-14T03:21:05;2.90;99.90
18805;DHT22;9530;48.930;9.526;2022-11-14T03:23:32;2.80;99.90
18805;DHT22;9530;48.930;9.526;2022-11-14T03:25:59;2.80;99.90
18805;DHT22;9530;48.930;9.526;2022-11-14T03:28:26;2.80;99.90
18805;DHT22;9530;48.930;9.526;2022-11-14T03:30:54;2.80;99.90
18805;DHT22;9530;48.930;9.526;2022-11-14T03:33:22;2.50;99.90
18805;DHT22;9530;48.930;9.526;2022-11-14T03:35:49;2.50;99.90
18805;DHT22;9530;48.930;9.526;2022-11-14T03:38:16;2.50;99.90
18805;DHT22;9530;48.930;9.526;2022-11-14T03:40:43;2.50;99.90
18805;DHT22;9530;48.930;9.526;2022-11-14T03:43:10;2.60;99.90
18805;DHT22;9530;48.930;9.526;2022-11-14T03:45:37;2.50;99.90
18805;DHT22;9530;48.930;9.526;2022-11-14T03:48:05;2.50;99.90
18805;DHT22;9530;48.930;9.526;2022-11-14T03:50:32;2.50;99.90
18805;DHT22;9530;48.930;9.526;2022-11-14T03:52:59;2.50;99.90
18805;DHT22;9530;48.930;9.526;2022-11-14T03:55:26;2.50;99.90
18805;DHT22;9530;48.930;9.526;2022-11-14T03:57:53;2.40;99.90
18805;DHT22;9530;48.930;9.526;2022-11-14T04:00:19;2.40;99.90
18805;DHT22;9530;48.930;9.526;2022-11-14T04:02:46;2.40;99.90
18805;DHT22;9530;48.930;9.526;2022-11-14T04:05:14;2.40;99.90
18805;DHT22;9530;48.930;9.526;2022-11-14T04:07:41;2.50;99.90
18805;DHT22;9530;48.930;9.526;2022-11-14T04:10:08;2.60;99.90
18805;DHT22;9530;48.930;9.526;2022-11-14T04:12:35;2.60;99.90
18805;DHT22;9530;48.930;9.526;2022-11-14T04:15:02;2.70;99.90
18805;DHT22;9530;48.930;9.526;2022-11-14T04:17:28;2.80;99.90
18805;DHT22;9530;48.930;9.526;2022-11-14T04:19:55;2.90;99.90
18805;DHT22;9530;48.930;9.526;2022-11-14T04:22:23;3.10;99.90
18805;DHT22;9530;48.930;9.526;2022-11-14T04:24:50;3.20;99.90
18805;DHT22;9530;48.930;9.526;2022-11-14T04:27:17;3.10;99.90
18805;DHT22;9530;48.930;9.526;2022-11-14T04:29:43;3.10;99.90
18805;DHT22;9530;48.930;9.526;2022-11-14T04:32:10;3.20;99.90
18805;DHT22;9530;48.930;9.526;2022-11-14T04:34:37;3.30;99.90
18805;DHT22;9530;48.930;9.526;2022-11-14T04:37:03;3.30;99.90
18805;DHT22;9530;48.930;9.526;2022-11-14T04:39:31;3.30;99.90
18805;DHT22;9530;48.930;9.526;2022-11-14T04:41:58;3.40;99.90
18805;DHT22;9530;48.930;9.526;2022-11-14T04:44:25;3.30;99.90
18805;DHT22;9530;48.930;9.526;2022-11-14T04:46:51;3.40;99.90
18805;DHT22;9530;48.930;9.526;2022-11-14T04:49:18;3.30;99.90
18805;DHT22;9530;48.930;9.526;2022-11-14T04:51:45;3.30;99.90
18805;DHT22;9530;48.930;9.526;2022-11-14T04:54:12;3.30;99.90
18805;DHT22;9530;48.930;9.526;2022-11-14T04:56:40;3.40;99.90
18805;DHT22;9530;48.930;9.526;2022-11-14T04:59:06;3.40;99.90
18805;DHT22;9530;48.930;9.526;2022-11-14T05:01:33;3.20;99.90
18805;DHT22;9530;48.930;9.526;2022-11-14T05:04:00;3.20;99.90
18805;DHT22;9530;48.930;9.526;2022-11-14T05:06:26;3.20;99.90
18805;DHT22;9530;48.930;9.526;2022-11-14T05:08:53;3.20;99.90
18805;DHT22;9530;48.930;9.526;2022-11-14T05:11:20;3.20;99.90
18805;DHT22;9530;48.930;9.526;2022-11-14T05:13:48;3.20;99.90
18805;DHT22;9530;48.930;9.526;2022-11-14T05:16:15;3.10;99.90
18805;DHT22;9530;48.930;9.526;2022-11-14T05:18:42;3.00;99.90
18805;DHT22;9530;48.930;9.526;2022-11-14T05:21:10;3.00;99.90
18805;DHT22;9530;48.930;9.526;2022-11-14T05:23:37;2.90;99.90
18805;DHT22;9530;48.930;9.526;2022-11-14T05:26:07;2.70;99.90
18805;DHT22;9530;48.930;9.526;2022-11-14T05:28:33;2.50;99.90
18805;DHT22;9530;48.930;9.526;2022-11-14T05:31:03;2.70;99.90
18805;DHT22;9530;48.930;9.526;2022-11-14T05:33:30;2.70;99.90
18805;DHT22;9530;48.930;9.526;2022-11-14T05:36:01;2.70;99.90
18805;DHT22;9530;48.930;9.526;2022-11-14T05:38:28;2.70;99.90
18805;DHT22;9530;48.930;9.526;2022-11-14T05:40:55;2.70;99.90
18805;DHT22;9530;48.930;9.526;2022-11-14T05:43:21;2.70;99.90
18805;DHT22;9530;48.930;9.526;2022-11-14T05:45:48;2.70;99.90
18805;DHT22;9530;48.930;9.526;2022-11-14T05:48:16;2.70;99.90
18805;DHT22;9530;48.930;9.526;2022-11-14T05:50:43;2.60;99.90
18805;DHT22;9530;48.930;9.526;2022-11-14T05:53:09;2.60;99.90
18805;DHT22;9530;48.930;9.526;2022-11-14T05:55:36;2.50;99.90
18805;DHT22;9530;48.930;9.526;2022-11-14T05:58:03;2.50;99.90
18805;DHT22;9530;48.930;9.526;2022-11-14T06:00:29;2.50;99.90
18805;DHT22;9530;48.930;9.526;2022-11-14T06:02:56;2.30;99.90
18805;DHT22;9530;48.930;9.526;2022-11-14T06:05:25;2.40;99.90
18805;DHT22;9530;48.930;9.526;2022-11-14T06:07:54;2.40;99.90
18805;DHT22;9530;48.930;9.526;2022-11-14T06:10:21;2.40;99.90
18805;DHT22;9530;48.930;9.526;2022-11-14T06:12:48;2.40;99.90
18805;DHT22;9530;48.930;9.526;2022-11-14T06:15:15;2.50;99.90
18805;DHT22;9530;48.930;9.526;2022-11-14T06:17:42;2.50;99.90
18805;DHT22;9530;48.930;9.526;2022-11-14T06:20:09;2.50;99.90
18805;DHT22;9530;48.930;9.526;2022-11-14T06:22:39;2.40;99.90
18805;DHT22;9530;48.930;9.526;2022-11-14T06:25:06;2.50;99.90
18805;DHT22;9530;48.930;9.526;2022-11-14T06:27:33;2.60;99.90
18805;DHT22;9530;48.930;9.526;2022-11-14T06:30:00;2.70;99.90
18805;DHT22;9530;48.930;9.526;2022-11-14T06:32:27;2.60;99.90
18805;DHT22;9530;48.930;9.526;2022-11-14T06:34:53;2.70;99.90
18805;DHT22;9530;48.930;9.526;2022-11-14T06:37:20;2.90;99.90
18805;DHT22;9530;48.930;9.526;2022-11-14T06:39:48;3.00;99.90
18805;DHT22;9530;48.930;9.526;2022-11-14T06:42:15;3.00;99.90
18805;DHT22;9530;48.930;9.526;2022-11-14T06:44:42;3.00;99.90
18805;DHT22;9530;48.930;9.526;2022-11-14T06:47:08;3.00;99.90
18805;DHT22;9530;48.930;9.526;2022-11-14T06:49:35;2.90;99.90
18805;DHT22;9530;48.930;9.526;2022-11-14T06:52:02;3.00;99.90
18805;DHT22;9530;48.930;9.526;2022-11-14T06:54:29;3.00;99.90
18805;DHT22;9530;48.930;9.526;2022-11-14T06:56:57;3.10;99.90
18805;DHT22;9530;48.930;9.526;2022-11-14T06:59:23;3.20;99.90
18805;DHT22;9530;48.930;9.526;2022-11-14T07:01:50;3.30;99.90
18805;DHT22;9530;48.930;9.526;2022-11-14T07:04:17;3.30;99.90
18805;DHT22;9530;48.930;9.526;2022-11-14T07:06:43;3.30;99.90
18805;DHT22;9530;48.930;9.526;2022-11-14T07:09:10;3.30;99.90
18805;DHT22;9530;48.930;9.526;2022-11-14T07:11:37;3.30;99.90
18805;DHT22;9530;48.930;9.526;2022-11-14T07:14:05;3.20;99.90
18805;DHT22;9530;48.930;9.526;2022-11-14T07:16:34;3.10;99.90
18805;DHT22;9530;48.930;9.526;2022-11-14T07:19:02;3.00;99.90
18805;DHT22;9530;48.930;9.526;2022-11-14T07:21:30;3.00;99.90
18805;DHT22;9530;48.930;9.526;2022-11-14T07:23:58;3.00;99.90
18805;DHT22;9530;48.930;9.526;2022-11-14T07:26:25;3.10;99.90
18805;DHT22;9530;48.930;9.526;2022-11-14T07:28:52;3.10;99.90
18805;DHT22;9530;48.930;9.526;2022-11-14T07:31:20;3.10;99.90
18805;DHT22;9530;48.930;9.526;2022-11-14T07:33:47;3.10;99.90
18805;DHT22;9530;48.930;9.526;2022-11-14T07:36:15;3.10;99.90
18805;DHT22;9530;48.930;9.526;2022-11-14T07:38:42;3.00;99.90
18805;DHT22;9530;48.930;9.526;2022-11-14T07:41:10;3.00;99.90
18805;DHT22;9530;48.930;9.526;2022-11-14T07:43:37;3.10;99.90
18805;DHT22;9530;48.930;9.526;2022-11-14T07:46:05;3.00;99.90
18805;DHT22;9530;48.930;9.526;2022-11-14T07:48:34;2.90;99.90
18805;DHT22;9530;48.930;9.526;2022-11-14T07:51:02;3.00;99.90
18805;DHT22;9530;48.930;9.526;2022-11-14T07:53:30;3.10;99.90
18805;DHT22;9530;48.930;9.526;2022-11-14T07:56:02;3.20;99.90
18805;DHT22;9530;48.930;9.526;2022-11-14T07:58:29;3.30;99.90
18805;DHT22;9530;48.930;9.526;2022-11-14T08:00:59;3.40;99.90
18805;DHT22;9530;48.930;9.526;2022-11-14T08:03:26;3.60;99.90
18805;DHT22;9530;48.930;9.526;2022-11-14T08:06:00;3.90;99.90
18805;DHT22;9530;48.930;9.526;2022-11-14T08:08:27;4.20;99.90
18805;DHT22;9530;48.930;9.526;2022-11-14T08:10:55;4.40;99.90
18805;DHT22;9530;48.930;9.526;2022-11-14T08:13:23;4.50;99.90
18805;DHT22;9530;48.930;9.526;2022-11-14T08:15:49;4.60;99.90
18805;DHT22;9530;48.930;9.526;2022-11-14T08:18:16;4.70;99.90
18805;DHT22;9530;48.930;9.526;2022-11-14T08:20:43;4.90;99.90
18805;DHT22;9530;48.930;9.526;2022-11-14T08:23:11;5.00;99.90
18805;DHT22;9530;48.930;9.526;2022-11-14T08:25:38;5.00;99.90
18805;DHT22;9530;48.930;9.526;2022-11-14T08:28:05;5.10;99.90
18805;DHT22;9530;48.930;9.526;2022-11-14T08:30:32;5.40;99.90
18805;DHT22;9530;48.930;9.526;2022-11-14T08:33:00;5.70;99.90
18805;DHT22;9530;48.930;9.526;2022-11-14T08:35:28;5.90;99.90
18805;DHT22;9530;48.930;9.526;2022-11-14T08:37:55;5.90;99.90
18805;DHT22;9530;48.930;9.526;2022-11-14T08:40:23;6.00;99.90
18805;DHT22;9530;48.930;9.526;2022-11-14T08:42:50;6.10;99.90
18805;DHT22;9530;48.930;9.526;2022-11-14T08:45:17;6.30;99.90
18805;DHT22;9530;48.930;9.526;2022-11-14T08:47:49;6.40;99.90
18805;DHT22;9530;48.930;9.526;2022-11-14T08:50:16;6.40;99.90
18805;DHT22;9530;48.930;9.526;2022-11-14T08:52:48;6.30;99.90
18805;DHT22;9530;48.930;9.526;2022-11-14T08:55:15;6.60;99.90
18805;DHT22;9530;48.930;9.526;2022-11-14T08:57:43;6.90;99.90
18805;DHT22;9530;48.930;9.526;2022-11-14T09:00:10;7.20;99.90
18805;DHT22;9530;48.930;9.526;2022-11-14T09:02:37;7.40;99.90
18805;DHT22;9530;48.930;9.526;2022-11-14T09:05:05;7.50;99.90
18805;DHT22;9530;48.930;9.526;2022-11-14T09:07:32;7.80;99.90
18805;DHT22;9530;48.930;9.526;2022-11-14T09:09:58;7.60;99.90
18805;DHT22;9530;48.930;9.526;2022-11-14T09:12:25;7.60;99.90
18805;DHT22;9530;48.930;9.526;2022-11-14T09:14:53;7.60;99.90
18805;DHT22;9530;48.930;9.526;2022-11-14T09:17:20;7.50;99.90
18805;DHT22;9530;48.930;9.526;2022-11-14T09:19:46;7.30;99.90
18805;DHT22;9530;48.930;9.526;2022-11-14T09:22:13;7.50;99.90
18805;DHT22;9530;48.930;9.526;2022-11-14T09:24:40;7.70;99.90
18805;DHT22;9530;48.930;9.526;2022-11-14T09:27:07;7.60;99.90
18805;DHT22;9530;48.930;9.526;2022-11-14T09:29:33;7.40;99.90
18805;DHT22;9530;48.930;9.526;2022-11-14T09:32:01;7.50;99.90
18805;DHT22;9530;48.930;9.526;2022-11-14T09:34:28;7.50;99.90
18805;DHT22;9530;48.930;9.526;2022-11-14T09:36:55;7.60;99.90
18805;DHT22;9530;48.930;9.526;2022-11-14T09:39:21;7.60;99.90
18805;DHT22;9530;48.930;9.526;2022-11-14T09:41:59;7.70;99.90
18805;DHT22;9530;48.930;9.526;2022-11-14T09:44:48;7.80;99.90
18805;DHT22;9530;48.930;9.526;2022-11-14T09:47:18;8.00;99.90
18805;DHT22;9530;48.930;9.526;2022-11-14T09:49:49;8.10;99.90
18805;DHT22;9530;48.930;9.526;2022-11-14T09:52:26;8.10;99.90
18805;DHT22;9530;48.930;9.526;2022-11-14T09:54:57;8.20;99.90
18805;DHT22;9530;48.930;9.526;2022-11-14T09:57:25;8.30;99.90
18805;DHT22;9530;48.930;9.526;2022-11-14T09:59:52;8.30;99.90
18805;DHT22;9530;48.930;9.526;2022-11-14T10:02:33;8.30;99.90
18805;DHT22;9530;48.930;9.526;2022-11-14T10:05:15;8.30;99.90
18805;DHT22;9530;48.930;9.526;2022-11-14T10:07:57;8.40;99.90
18805;DHT22;9530;48.930;9.526;2022-11-14T10:10:38;8.30;99.90
18805;DHT22;9530;48.930;9.526;2022-11-14T10:13:15;8.40;99.90
18805;DHT22;9530;48.930;9.526;2022-11-14T10:15:46;8.40;99.90
18805;DHT22;9530;48.930;9.526;2022-11-14T10:18:35;8.40;99.90
18805;DHT22;9530;48.930;9.526;2022-11-14T10:21:13;8.60;99.90
18805;DHT22;9530;48.930;9.526;2022-11-14T10:23:48;8.70;99.90
18805;DHT22;9530;48.930;9.526;2022-11-14T10:26:21;8.90;99.90
18805;DHT22;9530;48.930;9.526;2022-11-14T10:32:18;9.10;99.90
18805;DHT22;9530;48.930;9.526;2022-11-14T10:34:53;9.10;99.90
18805;DHT22;9530;48.930;9.526;2022-11-14T10:37:23;9.20;99.90
18805;DHT22;9530;48.930;9.526;2022-11-14T10:39:54;9.20;99.90
18805;DHT22;9530;48.930;9.526;2022-11-14T10:42:24;9.20;99.90
18805;DHT22;9530;48.930;9.526;2022-11-14T10:45:03;9.30;99.90
18805;DHT22;9530;48.930;9.526;2022-11-14T10:47:35;9.30;99.90
18805;DHT22;9530;48.930;9.526;2022-11-14T10:50:14;9.30;99.90
18805;DHT22;9530;48.930;9.526;2022-11-14T10:52:44;9.40;99.90
18805;DHT22;9530;48.930;9.526;2022-11-14T10:55:14;9.50;99.90
18805;DHT22;9530;48.930;9.526;2022-11-14T10:57:41;9.60;99.90
18805;DHT22;9530;48.930;9.526;2022-11-14T11:00:11;9.70;99.90
18805;DHT22;9530;48.930;9.526;2022-11-14T11:02:56;9.90;99.90
18805;DHT22;9530;48.930;9.526;2022-11-14T11:05:29;10.00;99.90
18805;DHT22;9530;48.930;9.526;2022-11-14T11:07:58;10.30;99.90
18805;DHT22;9530;48.930;9.526;2022-11-14T11:10:44;10.50;99.90
18805;DHT22;9530;48.930;9.526;2022-11-14T11:13:31;10.50;99.90
18805;DHT22;9530;48.930;9.526;2022-11-14T11:16:00;10.60;99.90
18805;DHT22;9530;48.930;9.526;2022-11-14T11:18:29;10.60;99.90
18805;DHT22;9530;48.930;9.526;2022-11-14T11:21:04;10.50;99.90
18805;DHT22;9530;48.930;9.526;2022-11-14T11:23:32;10.50;99.90
18805;DHT22;9530;48.930;9.526;2022-11-14T11:26:00;10.60;99.90
18805;DHT22;9530;48.930;9.526;2022-11-14T11:28:32;10.60;99.90
18805;DHT22;9530;48.930;9.526;2022-11-14T11:31:00;10.60;99.90
18805;DHT22;9530;48.930;9.526;2022-11-14T11:33:30;10.60;99.90
18805;DHT22;9530;48.930;9.526;2022-11-14T11:35:59;10.70;99.90
18805;DHT22;9530;48.930;9.526;2022-11-14T11:38:29;10.80;99.90
18805;DHT22;9530;48.930;9.526;2022-11-14T11:41:05;10.90;99.90
18805;DHT22;9530;48.930;9.526;2022-11-14T11:43:40;10.80;99.90
18805;DHT22;9530;48.930;9.526;2022-11-14T11:46:14;10.80;99.90
18805;DHT22;9530;48.930;9.526;2022-11-14T11:48:41;10.90;99.90
18805;DHT22;9530;48.930;9.526;2022-11-14T11:51:14;10.90;99.90
18805;DHT22;9530;48.930;9.526;2022-11-14T11:53:46;11.00;99.90
18805;DHT22;9530;48.930;9.526;2022-11-14T11:56:20;11.20;99.90
18805;DHT22;9530;48.930;9.526;2022-11-14T11:58:49;11.30;99.90
18805;DHT22;9530;48.930;9.526;2022-11-14T12:01:16;11.40;99.90
18805;DHT22;9530;48.930;9.526;2022-11-14T12:03:47;11.50;99.90
18805;DHT22;9530;48.930;9.526;2022-11-14T12:06:16;11.70;99.90
18805;DHT22;9530;48.930;9.526;2022-11-14T12:09:02;11.90;99.90
18805;DHT22;9530;48.930;9.526;2022-11-14T12:11:32;11.90;99.90
18805;DHT22;9530;48.930;9.526;2022-11-14T12:14:23;12.00;99.90
18805;DHT22;9530;48.930;9.526;2022-11-14T12:17:15;12.00;99.90
18805;DHT22;9530;48.930;9.526;2022-11-14T12:25:53;11.90;99.90
18805;DHT22;9530;48.930;9.526;2022-11-14T12:28:37;11.90;99.90
18805;DHT22;9530;48.930;9.526;2022-11-14T12:31:10;11.90;99.90
18805;DHT22;9530;48.930;9.526;2022-11-14T12:33:38;12.10;99.90
18805;DHT22;9530;48.930;9.526;2022-11-14T12:36:08;12.10;99.90
18805;DHT22;9530;48.930;9.526;2022-11-14T12:38:42;12.10;99.90
18805;DHT22;9530;48.930;9.526;2022-11-14T12:41:11;12.10;99.90
18805;DHT22;9530;48.930;9.526;2022-11-14T12:43:46;12.00;99.90
18805;DHT22;9530;48.930;9.526;2022-11-14T12:46:13;11.90;99.90
18805;DHT22;9530;48.930;9.526;2022-11-14T12:48:40;11.80;99.90
18805;DHT22;9530;48.930;9.526;2022-11-14T12:54:44;11.70;99.90
18805;DHT22;9530;48.930;9.526;2022-11-14T12:57:18;11.60;99.90
18805;DHT22;9530;48.930;9.526;2022-11-14T13:00:06;11.70;99.90
18805;DHT22;9530;48.930;9.526;2022-11-14T13:03:09;11.70;99.90
18805;DHT22;9530;48.930;9.526;2022-11-14T13:05:52;11.80;99.90
18805;DHT22;9530;48.930;9.526;2022-11-14T13:08:41;12.00;99.90
18805;DHT22;9530;48.930;9.526;2022-11-14T13:11:35;12.20;99.90
18805;DHT22;9530;48.930;9.526;2022-11-14T13:14:20;12.60;99.90
18805;DHT22;9530;48.930;9.526;2022-11-14T13:17:09;13.00;99.90
18805;DHT22;9530;48.930;9.526;2022-11-14T13:19:53;13.30;99.90
18805;DHT22;9530;48.930;9.526;2022-11-14T13:22:39;13.30;99.90
18805;DHT22;9530;48.930;9.526;2022-11-14T13:25:21;13.20;99.90
18805;DHT22;9530;48.930;9.526;2022-11-14T13:27:49;13.10;99.90
18805;DHT22;9530;48.930;9.526;2022-11-14T13:33:40;13.00;99.90
18805;DHT22;9530;48.930;9.526;2022-11-14T13:36:09;13.00;99.90
18805;DHT22;9530;48.930;9.526;2022-11-14T13:38:57;12.90;99.90
18805;DHT22;9530;48.930;9.526;2022-11-14T13:45:05;13.00;99.90
18805;DHT22;9530;48.930;9.526;2022-11-14T13:47:47;13.20;99.90
18805;DHT22;9530;48.930;9.526;2022-11-14T13:50:25;13.30;99.90
18805;DHT22;9530;48.930;9.526;2022-11-14T13:52:55;13.30;99.90
18805;DHT22;9530;48.930;9.526;2022-11-14T13:55:27;13.30;99.90
18805;DHT22;9530;48.930;9.526;2022-11-14T13:58:07;13.40;99.90
18805;DHT22;9530;48.930;9.526;2022-11-14T14:00:52;13.30;99.90
18805;DHT22;9530;48.930;9.526;2022-11-14T14:03:31;13.30;99.90
18805;DHT22;9530;48.930;9.526;2022-11-14T14:06:17;13.30;99.90
18805;DHT22;9530;48.930;9.526;2022-11-14T14:08:56;13.30;99.90
18805;DHT22;9530;48.930;9.526;2022-11-14T14:11:39;13.30;99.90
18805;DHT22;9530;48.930;9.526;2022-11-14T14:14:19;13.30;99.90
18805;DHT22;9530;48.930;9.526;2022-11-14T14:16:54;13.20;99.90
18805;DHT22;9530;48.930;9.526;2022-11-14T14:19:35;13.20;99.90
18805;DHT22;9530;48.930;9.526;2022-11-14T14:22:10;13.30;99.90
18805;DHT22;9530;48.930;9.526;2022-11-14T14:24:52;13.30;99.90
18805;DHT22;9530;48.930;9.526;2022-11-14T14:27:25;13.30;99.90
18805;DHT22;9530;48.930;9.526;2022-11-14T14:30:00;13.30;99.90
18805;DHT22;9530;48.930;9.526;2022-11-14T14:32:28;13.40;99.90
18805;DHT22;9530;48.930;9.526;2022-11-14T14:34:55;13.40;99.90
18805;DHT22;9530;48.930;9.526;2022-11-14T14:37:27;13.40;99.90
18805;DHT22;9530;48.930;9.526;2022-11-14T14:39:56;13.40;99.90
18805;DHT22;9530;48.930;9.526;2022-11-14T14:42:23;13.40;99.90
18805;DHT22;9530;48.930;9.526;2022-11-14T14:44:51;13.30;99.90
18805;DHT22;9530;48.930;9.526;2022-11-14T14:47:32;13.20;99.90
18805;DHT22;9530;48.930;9.526;2022-11-14T14:50:00;13.10;99.90
18805;DHT22;9530;48.930;9.526;2022-11-14T14:52:30;13.10;99.90
18805;DHT22;9530;48.930;9.526;2022-11-14T14:54:58;13.00;99.90
18805;DHT22;9530;48.930;9.526;2022-11-14T14:57:27;12.90;99.90
18805;DHT22;9530;48.930;9.526;2022-11-14T14:59:58;12.80;99.90
18805;DHT22;9530;48.930;9.526;2022-11-14T15:02:25;12.80;99.90
18805;DHT22;9530;48.930;9.526;2022-11-14T15:04:52;12.80;99.90
18805;DHT22;9530;48.930;9.526;2022-11-14T15:07:20;12.70;99.90
18805;DHT22;9530;48.930;9.526;2022-11-14T15:09:53;12.60;99.90
18805;DHT22;9530;48.930;9.526;2022-11-14T15:12:21;12.60;99.90
18805;DHT22;9530;48.930;9.526;2022-11-14T15:14:48;12.60;99.90
18805;DHT22;9530;48.930;9.526;2022-11-14T15:17:15;12.50;99.90
18805;DHT22;9530;48.930;9.526;2022-11-14T15:19:44;12.40;99.90
18805;DHT22;9530;48.930;9.526;2022-11-14T15:22:22;12.30;99.90
18805;DHT22;9530;48.930;9.526;2022-11-14T15:25:17;12.40;99.90
18805;DHT22;9530;48.930;9.526;2022-11-14T15:27:46;12.30;99.90
18805;DHT22;9530;48.930;9.526;2022-11-14T15:30:21;12.20;99.90
18805;DHT22;9530;48.930;9.526;2022-11-14T15:32:49;12.20;99.90
18805;DHT22;9530;48.930;9.526;2022-11-14T15:35:28;12.10;99.90
18805;DHT22;9530;48.930;9.526;2022-11-14T15:38:04;12.10;99.90
18805;DHT22;9530;48.930;9.526;2022-11-14T15:40:34;12.10;99.90
18805;DHT22;9530;48.930;9.526;2022-11-14T15:43:35;12.00;99.90
18805;DHT22;9530;48.930;9.526;2022-11-14T15:46:03;12.00;99.90
18805;DHT22;9530;48.930;9.526;2022-11-14T15:48:30;11.90;99.90
18805;DHT22;9530;48.930;9.526;2022-11-14T15:50:57;11.90;99.90
18805;DHT22;9530;48.930;9.526;2022-11-14T15:53:25;11.90;99.90
18805;DHT22;9530;48.930;9.526;2022-11-14T15:55:55;11.90;99.90
18805;DHT22;9530;48.930;9.526;2022-11-14T15:58:23;11.90;99.90
18805;DHT22;9530;48.930;9.526;2022-11-14T16:00:51;11.90;99.90
18805;DHT22;9530;48.930;9.526;2022-11-14T16:03:20;12.00;99.90
18805;DHT22;9530;48.930;9.526;2022-11-14T16:05:47;12.00;99.90
18805;DHT22;9530;48.930;9.526;2022-11-14T16:08:14;12.00;99.90
18805;DHT22;9530;48.930;9.526;2022-11-14T16:10:41;12.00;99.90
18805;DHT22;9530;48.930;9.526;2022-11-14T16:13:09;12.10;99.90
18805;DHT22;9530;48.930;9.526;2022-11-14T16:15:36;12.10;99.90
18805;DHT22;9530;48.930;9.526;2022-11-14T16:18:04;12.10;99.90
18805;DHT22;9530;48.930;9.526;2022-11-14T16:20:31;12.10;99.90
18805;DHT22;9530;48.930;9.526;2022-11-14T16:23:02;12.00;99.90
18805;DHT22;9530;48.930;9.526;2022-11-14T16:25:30;12.00;99.90
18805;DHT22;9530;48.930;9.526;2022-11-14T16:27:56;12.00;99.90
18805;DHT22;9530;48.930;9.526;2022-11-14T16:30:26;12.00;99.90
18805;DHT22;9530;48.930;9.526;2022-11-14T16:32:53;12.10;99.90
18805;DHT22;9530;48.930;9.526;2022-11-14T16:35:21;12.00;99.90